Time;durP1;ratioP1;P1;durP2;ratioP2;P2;SDS_P1;SDS_P2;PMS_P1;PMS_P2;Temp;Humidity;BMP_temperature;BMP_pressure;BME280_temperature;BME280_humidity;BME280_pressure;Samples;Min_cycle;Max_cycle;Signal;HPM_P1;HPM_P2
2021/06/09 00:00:52;;;;;;;37.40;21.93;;;17.70;98.50;;;;;;5039109;28;20431;-75
2021/06/09 00:03:20;;;;;;;36.80;22.43;;;17.70;98.60;;;;;;5031196;28;20957;-76
2021/06/09 00:05:47;;;;;;;47.03;23.83;;;17.70;98.60;;;;;;5028103;28;20427;-76
2021/06/09 00:08:13;;;;;;;42.33;22.50;;;17.60;98.80;;;;;;5029122;28;20522;-73
2021/06/09 00:10:39;;;;;;;44.93;25.60;;;17.60;99.00;;;;;;5030515;28;20437;-75
2021/06/09 00:13:05;;;;;;;45.03;26.20;;;17.60;99.10;;;;;;5032425;28;20439;-75
2021/06/09 00:15:31;;;;;;;40.17;23.47;;;17.60;99.10;;;;;;5032500;28;20467;-76
2021/06/09 00:17:57;;;;;;;35.53;21.43;;;17.50;99.10;;;;;;5025929;28;20530;-75
2021/06/09 00:20:25;;;;;;;43.50;23.80;;;17.50;99.10;;;;;;5031037;28;20184;-74
2021/06/09 00:22:52;;;;;;;46.60;26.37;;;17.50;99.10;;;;;;5031260;28;20232;-74
2021/06/09 00:25:18;;;;;;;48.57;27.60;;;17.40;99.10;;;;;;5032787;28;20832;-74
2021/06/09 00:27:47;;;;;;;39.83;24.00;;;17.30;99.20;;;;;;5032086;28;20426;-75
2021/06/09 00:30:17;;;;;;;46.00;25.10;;;17.20;99.30;;;;;;5030867;28;20431;-76
2021/06/09 00:32:43;;;;;;;46.27;25.20;;;17.20;99.40;;;;;;5029765;28;20460;-76
2021/06/09 00:35:10;;;;;;;42.17;23.13;;;17.20;99.60;;;;;;5032409;28;20471;-76
2021/06/09 00:37:36;;;;;;;42.00;22.30;;;17.20;99.60;;;;;;5031856;28;20796;-75
2021/06/09 00:40:02;;;;;;;39.03;23.73;;;17.20;99.70;;;;;;5031842;28;20507;-76
2021/06/09 00:42:28;;;;;;;43.37;23.93;;;17.20;99.60;;;;;;5031319;28;20446;-75
2021/06/09 00:44:54;;;;;;;45.90;27.03;;;17.20;99.50;;;;;;5032339;28;20819;-76
2021/06/09 00:47:22;;;;;;;39.27;23.80;;;17.20;99.50;;;;;;5032212;28;20250;-76
2021/06/09 00:49:49;;;;;;;44.60;24.57;;;17.10;99.50;;;;;;5031988;28;20927;-74
2021/06/09 00:52:15;;;;;;;45.77;25.50;;;17.10;99.60;;;;;;5029827;28;20491;-73
2021/06/09 00:54:40;;;;;;;42.60;23.60;;;17.10;99.70;;;;;;5032008;28;20997;-75
2021/06/09 00:57:07;;;;;;;43.10;23.10;;;17.10;99.80;;;;;;5031734;28;20271;-76
2021/06/09 00:59:35;;;;;;;49.70;25.70;;;17.10;99.80;;;;;;5031491;28;20221;-75
2021/06/09 01:02:00;;;;;;;43.07;23.60;;;17.20;99.70;;;;;;5029891;28;20426;-74
2021/06/09 01:04:26;;;;;;;43.90;24.10;;;17.10;99.60;;;;;;5032074;28;20435;-75
2021/06/09 01:06:52;;;;;;;43.40;22.77;;;17.10;99.70;;;;;;5031448;28;20206;-75
2021/06/09 01:09:18;;;;;;;43.97;23.63;;;17.10;99.80;;;;;;5031876;28;20185;-74
2021/06/09 01:11:45;;;;;;;44.80;24.53;;;17.10;99.70;;;;;;5031352;28;20496;-75
2021/06/09 01:14:10;;;;;;;42.43;23.93;;;17.10;99.60;;;;;;5032047;28;20207;-75
2021/06/09 01:16:36;;;;;;;44.67;23.30;;;17.10;99.50;;;;;;5029857;28;20420;-73
2021/06/09 01:19:03;;;;;;;41.93;23.90;;;17.10;99.60;;;;;;5031786;28;20292;-74
2021/06/09 01:21:30;;;;;;;42.40;23.27;;;17.00;99.50;;;;;;5028982;28;20263;-75
2021/06/09 01:23:57;;;;;;;44.63;24.80;;;16.90;99.80;;;;;;5035390;28;20554;-75
2021/06/09 01:26:25;;;;;;;46.13;26.33;;;16.90;99.90;;;;;;5038611;28;20485;-74
2021/06/09 01:28:53;;;;;;;41.17;23.67;;;16.90;99.90;;;;;;5035032;28;20468;-76
2021/06/09 01:31:19;;;;;;;43.60;23.00;;;16.90;99.90;;;;;;5032483;28;20921;-75
2021/06/09 01:33:45;;;;;;;46.50;26.20;;;16.90;99.90;;;;;;5032400;28;20458;-76
2021/06/09 01:36:12;;;;;;;41.53;23.90;;;17.00;99.90;;;;;;5031555;28;20493;-77
2021/06/09 01:38:38;;;;;;;42.53;23.87;;;17.00;99.90;;;;;;5030623;28;20435;-75
2021/06/09 01:41:04;;;;;;;44.00;24.33;;;17.00;99.90;;;;;;5029292;28;20973;-74
2021/06/09 01:43:30;;;;;;;51.03;27.47;;;17.10;99.90;;;;;;5030505;28;20250;-75
2021/06/09 01:45:57;;;;;;;42.93;23.53;;;17.10;99.90;;;;;;5031322;28;20880;-75
2021/06/09 01:48:23;;;;;;;47.97;26.13;;;17.10;99.90;;;;;;5032321;28;20424;-74
2021/06/09 01:50:49;;;;;;;44.10;23.80;;;17.10;99.90;;;;;;5030536;28;20446;-76
2021/06/09 01:53:15;;;;;;;47.40;25.50;;;17.20;99.90;;;;;;5033152;28;20506;-76
2021/06/09 01:55:40;;;;;;;48.63;25.93;;;17.20;99.80;;;;;;5032681;28;20532;-76
2021/06/09 01:58:10;;;;;;;49.57;25.50;;;17.20;99.80;;;;;;5032156;28;20460;-75
2021/06/09 02:00:47;;;;;;;45.83;23.77;;;17.30;99.70;;;;;;5030277;28;20648;-74
2021/06/09 02:03:14;;;;;;;44.27;24.83;;;17.30;99.60;;;;;;5030475;28;20530;-74
2021/06/09 02:05:41;;;;;;;48.90;25.23;;;17.40;99.40;;;;;;5030750;28;20462;-74
2021/06/09 02:08:10;;;;;;;49.80;26.23;;;17.40;99.20;;;;;;5030408;28;20435;-74
2021/06/09 02:10:38;;;;;;;46.53;24.90;;;17.40;99.10;;;;;;5030005;28;20423;-75
2021/06/09 02:13:12;;;;;;;46.57;25.77;;;17.40;98.90;;;;;;5030586;28;20455;-76
2021/06/09 02:15:39;;;;;;;42.00;22.63;;;17.20;98.70;;;;;;5030524;28;20477;-75
2021/06/09 02:18:09;;;;;;;39.60;22.60;;;17.00;98.70;;;;;;5029013;28;20915;-74
2021/06/09 02:20:38;;;;;;;40.50;22.23;;;16.90;99.10;;;;;;5028171;28;20988;-75
2021/06/09 02:23:06;;;;;;;46.00;22.70;;;16.70;99.30;;;;;;5030395;28;20452;-74
2021/06/09 02:25:32;;;;;;;42.30;23.33;;;16.70;99.60;;;;;;5030519;28;20858;-75
2021/06/09 02:27:58;;;;;;;39.57;23.20;;;16.60;99.90;;;;;;5030748;28;20421;-75
2021/06/09 02:30:24;;;;;;;45.50;23.60;;;16.50;99.90;;;;;;5030382;28;20455;-73
2021/06/09 02:32:50;;;;;;;45.20;26.07;;;16.50;99.90;;;;;;5030062;28;20307;-73
2021/06/09 02:35:20;;;;;;;47.20;25.30;;;16.50;99.90;;;;;;5030594;28;20222;-75
2021/06/09 02:37:51;;;;;;;45.33;24.37;;;16.50;99.90;;;;;;5029278;28;20477;-75
2021/06/09 02:40:19;;;;;;;47.60;25.90;;;16.60;99.90;;;;;;5030687;28;20464;-74
2021/06/09 02:42:45;;;;;;;44.07;24.30;;;16.60;99.90;;;;;;5028401;28;20509;-75
2021/06/09 02:45:18;;;;;;;42.67;24.03;;;16.70;99.90;;;;;;5029553;28;20522;-75
2021/06/09 02:47:56;;;;;;;46.07;24.37;;;16.70;99.90;;;;;;5030227;28;20431;-76
2021/06/09 02:50:23;;;;;;;43.10;24.33;;;16.80;99.90;;;;;;5029332;28;20928;-73
2021/06/09 02:53:06;;;;;;;47.33;25.10;;;16.80;99.90;;;;;;5028492;28;20443;-73
2021/06/09 02:56:07;;;;;;;37.60;22.30;;;16.90;99.60;;;;;;5030339;28;20475;-73
2021/06/09 02:59:06;;;;;;;44.87;24.10;;;16.90;99.70;;;;;;4961626;28;20442;-75
2021/06/09 03:01:43;;;;;;;43.87;23.73;;;17.00;99.70;;;;;;5028022;28;20819;-76
2021/06/09 03:04:11;;;;;;;43.10;23.70;;;17.00;99.30;;;;;;5022390;28;20440;-74
2021/06/09 03:06:44;;;;;;;42.53;24.30;;;17.10;99.00;;;;;;5028302;28;20430;-75
2021/06/09 03:09:28;;;;;;;44.67;24.97;;;17.10;98.90;;;;;;5030155;28;20505;-75
2021/06/09 03:12:14;;;;;;;43.50;23.97;;;17.10;99.10;;;;;;5029472;28;20412;-74
2021/06/09 03:17:35;;;;;;;37.97;23.40;;;17.10;99.20;;;;;;5025989;28;20425;-75
2021/06/09 03:20:23;;;;;;;42.70;24.33;;;17.20;99.30;;;;;;5030150;28;20794;-75
2021/06/09 03:23:11;;;;;;;46.50;24.90;;;17.20;99.20;;;;;;5029285;28;20473;-75
2021/06/09 03:26:00;;;;;;;38.47;22.87;;;17.20;99.10;;;;;;5029900;28;20419;-76
2021/06/09 03:28:43;;;;;;;45.60;24.40;;;17.30;99.00;;;;;;5029373;28;20426;-76
2021/06/09 03:31:15;;;;;;;43.60;24.40;;;17.30;98.90;;;;;;5029584;28;20444;-77
2021/06/09 03:33:44;;;;;;;43.03;24.90;;;17.30;99.00;;;;;;5029936;28;21010;-75
2021/06/09 03:36:23;;;;;;;38.57;21.90;;;17.30;98.90;;;;;;5030475;28;20973;-78
2021/06/09 03:38:59;;;;;;;44.10;24.40;;;17.30;98.90;;;;;;5031502;28;20430;-76
2021/06/09 03:41:33;;;;;;;49.30;25.87;;;17.30;98.80;;;;;;5031672;28;21041;-75
2021/06/09 03:44:00;;;;;;;46.23;27.27;;;17.40;98.60;;;;;;5037492;28;20431;-75
2021/06/09 03:46:27;;;;;;;51.63;28.00;;;17.20;98.50;;;;;;5038051;28;20448;-75
2021/06/09 03:48:54;;;;;;;49.53;26.67;;;17.10;98.80;;;;;;5038163;28;20440;-75
2021/06/09 03:51:24;;;;;;;47.33;26.40;;;17.10;99.20;;;;;;5047537;28;20518;-76
2021/06/09 03:53:52;;;;;;;45.40;25.87;;;17.10;99.30;;;;;;5043017;28;20445;-75
2021/06/09 03:56:18;;;;;;;53.57;28.93;;;17.20;99.30;;;;;;5034182;28;20502;-75
2021/06/09 03:58:48;;;;;;;51.17;27.23;;;17.20;99.20;;;;;;5033282;28;20812;-75
2021/06/09 04:01:15;;;;;;;49.03;24.90;;;17.30;99.20;;;;;;5034394;28;21046;-76
2021/06/09 04:03:44;;;;;;;46.60;24.63;;;17.30;99.20;;;;;;5033888;28;20957;-75
2021/06/09 04:06:14;;;;;;;47.10;23.40;;;17.40;99.10;;;;;;5028338;28;20422;-75
2021/06/09 04:08:42;;;;;;;44.87;25.10;;;17.40;99.00;;;;;;5032640;28;20434;-75
2021/06/09 04:11:12;;;;;;;48.83;25.30;;;17.40;98.80;;;;;;5032964;28;20423;-76
2021/06/09 04:13:40;;;;;;;47.13;26.50;;;17.50;98.50;;;;;;5033742;28;20453;-76
2021/06/09 04:16:07;;;;;;;44.23;24.23;;;17.40;98.10;;;;;;5033375;28;20473;-76
2021/06/09 04:18:34;;;;;;;44.07;26.73;;;17.40;98.30;;;;;;5033088;28;20424;-77
2021/06/09 04:21:03;;;;;;;54.93;27.13;;;17.40;98.20;;;;;;5032940;28;20930;-75
2021/06/09 04:23:29;;;;;;;40.30;22.43;;;17.40;98.40;;;;;;5033552;28;20509;-76
2021/06/09 04:25:58;;;;;;;49.40;25.47;;;17.40;98.50;;;;;;5033678;28;20435;-76
2021/06/09 04:28:26;;;;;;;45.23;25.50;;;17.50;98.40;;;;;;5032071;28;20558;-75
2021/06/09 04:30:53;;;;;;;44.10;24.20;;;17.40;98.50;;;;;;5032418;28;20424;-75
2021/06/09 04:33:19;;;;;;;41.00;24.40;;;17.40;98.50;;;;;;5031899;28;20448;-75
2021/06/09 04:35:46;;;;;;;37.37;21.77;;;17.50;98.30;;;;;;5032832;28;20526;-76
2021/06/09 04:38:16;;;;;;;36.43;21.80;;;17.60;97.50;;;;;;5031212;28;20418;-74
2021/06/09 04:40:43;;;;;;;41.13;23.63;;;17.60;97.20;;;;;;5029351;28;20552;-73
2021/06/09 04:43:09;;;;;;;37.70;20.50;;;17.60;97.00;;;;;;5032987;28;20450;-77
2021/06/09 04:45:35;;;;;;;39.10;22.13;;;17.40;97.20;;;;;;5034095;28;20423;-76
2021/06/09 04:48:01;;;;;;;33.57;20.80;;;17.50;97.20;;;;;;5036019;28;20427;-74
2021/06/09 04:50:27;;;;;;;43.60;24.10;;;17.50;97.00;;;;;;5037694;28;20232;-75
2021/06/09 04:53:10;;;;;;;38.17;21.73;;;17.40;97.40;;;;;;5039584;28;20439;-75
2021/06/09 04:55:42;;;;;;;38.60;22.33;;;17.40;97.80;;;;;;5037188;28;20506;-76
2021/06/09 04:58:09;;;;;;;37.97;21.93;;;17.40;97.90;;;;;;5033995;28;20778;-75
2021/06/09 05:00:35;;;;;;;38.83;21.93;;;17.40;98.10;;;;;;5033974;28;20501;-76
2021/06/09 05:03:02;;;;;;;39.37;22.23;;;17.50;98.30;;;;;;5033619;28;20443;-75
2021/06/09 05:05:28;;;;;;;38.03;22.30;;;17.60;97.70;;;;;;5032292;28;20926;-75
2021/06/09 05:07:53;;;;;;;38.97;21.73;;;17.70;97.30;;;;;;5031923;28;20426;-75
2021/06/09 05:10:20;;;;;;;37.77;21.87;;;17.70;97.10;;;;;;5033178;28;20922;-74
2021/06/09 05:13:05;;;;;;;37.47;21.23;;;17.80;97.10;;;;;;5030560;28;20213;-74
2021/06/09 05:15:36;;;;;;;38.40;22.80;;;17.80;96.60;;;;;;5029785;28;20473;-76
2021/06/09 05:18:07;;;;;;;42.60;24.03;;;17.80;96.40;;;;;;5027503;28;20621;-75
2021/06/09 05:20:39;;;;;;;43.77;25.53;;;17.70;96.60;;;;;;5033290;28;20891;-75
2021/06/09 05:23:13;;;;;;;42.67;22.83;;;17.60;97.20;;;;;;5035727;28;20461;-76
2021/06/09 05:25:40;;;;;;;42.97;23.60;;;17.60;97.50;;;;;;5040760;28;20414;-77
2021/06/09 05:28:08;;;;;;;41.33;22.67;;;17.70;97.20;;;;;;5039268;28;20413;-76
2021/06/09 05:30:35;;;;;;;40.97;21.63;;;17.70;96.90;;;;;;5046625;28;20418;-75
2021/06/09 05:33:02;;;;;;;41.50;22.80;;;17.60;97.00;;;;;;5042133;28;20446;-74
2021/06/09 05:35:30;;;;;;;37.60;22.27;;;17.60;97.20;;;;;;5044087;28;20489;-75
2021/06/09 05:37:56;;;;;;;41.07;24.10;;;17.50;97.50;;;;;;5044391;28;20419;-75
2021/06/09 05:40:22;;;;;;;45.70;24.73;;;17.50;97.70;;;;;;5043124;28;20512;-75
2021/06/09 05:42:49;;;;;;;41.73;22.50;;;17.70;97.60;;;;;;5035331;28;20514;-74
2021/06/09 05:45:24;;;;;;;41.17;24.50;;;17.70;97.20;;;;;;5032152;28;20427;-74
2021/06/09 05:47:50;;;;;;;45.67;22.87;;;17.90;97.20;;;;;;5032255;28;20424;-74
2021/06/09 05:50:18;;;;;;;38.27;21.60;;;18.00;96.90;;;;;;5033266;28;20944;-75
2021/06/09 05:52:49;;;;;;;41.93;22.83;;;18.10;96.50;;;;;;5033516;28;20208;-75
2021/06/09 05:55:18;;;;;;;36.63;21.53;;;18.20;96.20;;;;;;5033019;28;20451;-74
2021/06/09 05:57:45;;;;;;;47.60;24.67;;;18.30;95.60;;;;;;5032455;28;20427;-75
2021/06/09 06:00:12;;;;;;;43.67;24.30;;;18.30;94.80;;;;;;5031942;28;20431;-75
2021/06/09 06:02:38;;;;;;;39.30;23.60;;;18.20;95.20;;;;;;5023804;28;20487;-77
2021/06/09 06:05:06;;;;;;;45.13;24.83;;;18.30;95.40;;;;;;5012478;28;20417;-76
2021/06/09 06:07:33;;;;;;;45.63;24.00;;;18.40;95.30;;;;;;5029651;28;20440;-76
2021/06/09 06:10:00;;;;;;;42.63;24.20;;;18.40;95.20;;;;;;5031793;28;20429;-77
2021/06/09 06:12:26;;;;;;;45.27;25.63;;;18.50;94.90;;;;;;5032370;28;20474;-76
2021/06/09 06:14:53;;;;;;;45.13;24.47;;;18.60;94.70;;;;;;5032305;28;20570;-76
2021/06/09 06:17:19;;;;;;;55.37;25.20;;;18.50;94.20;;;;;;5033706;28;20511;-75
2021/06/09 06:19:49;;;;;;;42.73;22.40;;;18.60;94.60;;;;;;5032746;28;20446;-76
2021/06/09 06:22:15;;;;;;;40.20;21.77;;;18.80;94.20;;;;;;5031227;28;20426;-75
2021/06/09 06:24:43;;;;;;;36.03;20.97;;;18.90;94.00;;;;;;5033063;28;20799;-75
2021/06/09 06:27:12;;;;;;;44.43;24.57;;;19.10;93.50;;;;;;5032322;28;20950;-74
2021/06/09 06:29:39;;;;;;;41.20;22.70;;;19.30;93.00;;;;;;5036465;28;20460;-75
2021/06/09 06:32:09;;;;;;;44.93;23.73;;;19.50;92.40;;;;;;5041156;28;20444;-74
2021/06/09 06:34:42;;;;;;;41.53;23.27;;;19.60;91.60;;;;;;5029109;28;20421;-74
2021/06/09 06:37:09;;;;;;;50.13;24.80;;;19.50;92.00;;;;;;5032547;28;20922;-74
2021/06/09 06:39:36;;;;;;;47.20;22.90;;;19.40;91.70;;;;;;5032300;28;20434;-76
2021/06/09 06:42:02;;;;;;;37.47;21.27;;;19.40;92.10;;;;;;5032037;28;20499;-74
2021/06/09 06:44:28;;;;;;;38.57;22.00;;;19.60;91.90;;;;;;5032075;28;20540;-75
2021/06/09 06:46:54;;;;;;;37.30;20.13;;;19.50;91.50;;;;;;5032434;28;20996;-75
2021/06/09 06:49:20;;;;;;;34.47;20.77;;;19.50;91.90;;;;;;5030466;28;20547;-76
2021/06/09 06:51:50;;;;;;;35.80;20.60;;;19.50;91.60;;;;;;5032232;28;20177;-75
2021/06/09 06:54:16;;;;;;;30.67;17.70;;;19.30;91.90;;;;;;5031869;28;20432;-75
2021/06/09 06:56:42;;;;;;;33.27;19.90;;;19.10;92.30;;;;;;5031977;28;21000;-76
2021/06/09 06:59:09;;;;;;;35.03;19.33;;;19.20;92.40;;;;;;5033042;28;20600;-73
2021/06/09 07:01:36;;;;;;;38.50;20.23;;;19.10;92.70;;;;;;5033359;28;20500;-76
2021/06/09 07:04:04;;;;;;;30.83;18.10;;;19.10;92.60;;;;;;5030786;28;20483;-75
2021/06/09 07:06:32;;;;;;;35.23;19.20;;;19.20;92.70;;;;;;5032253;28;20413;-75
2021/06/09 07:09:00;;;;;;;37.10;19.83;;;19.40;92.00;;;;;;5016518;28;20438;-76
2021/06/09 07:11:26;;;;;;;35.23;19.50;;;19.50;92.10;;;;;;5032334;28;20794;-74
2021/06/09 07:13:56;;;;;;;40.50;20.40;;;19.50;91.70;;;;;;5033050;28;20464;-76
2021/06/09 07:16:27;;;;;;;31.80;19.60;;;19.60;91.60;;;;;;5032382;28;20518;-76
2021/06/09 07:18:53;;;;;;;31.80;18.10;;;19.70;91.60;;;;;;5031383;28;20456;-75
2021/06/09 07:21:22;;;;;;;35.73;20.37;;;19.70;91.40;;;;;;5035664;28;20414;-76
2021/06/09 07:23:49;;;;;;;29.80;19.37;;;19.60;91.00;;;;;;5036646;28;20467;-75
2021/06/09 07:26:16;;;;;;;38.20;20.70;;;19.50;91.90;;;;;;5035803;28;20424;-76
2021/06/09 07:28:49;;;;;;;37.53;19.50;;;19.50;91.70;;;;;;5037339;28;20524;-75
2021/06/09 07:31:18;;;;;;;30.10;18.80;;;19.50;91.70;;;;;;5041646;28;20451;-76
2021/06/09 07:33:47;;;;;;;30.97;18.87;;;19.60;91.60;;;;;;5044255;28;20445;-74
2021/06/09 07:36:16;;;;;;;35.30;19.80;;;19.70;91.30;;;;;;5034668;28;20539;-74
2021/06/09 07:38:46;;;;;;;32.53;20.70;;;20.00;91.00;;;;;;5027356;28;20416;-74
2021/06/09 07:41:14;;;;;;;32.07;19.20;;;20.10;90.30;;;;;;5040538;28;20415;-75
2021/06/09 07:43:42;;;;;;;40.87;22.90;;;20.20;90.20;;;;;;5066132;28;20443;-75
2021/06/09 07:46:12;;;;;;;38.10;20.80;;;20.20;90.00;;;;;;5039140;28;20423;-76
2021/06/09 07:48:40;;;;;;;35.00;20.57;;;20.20;90.50;;;;;;5035688;28;20427;-74
2021/06/09 07:51:11;;;;;;;39.43;23.03;;;20.50;90.00;;;;;;5038541;28;20521;-75
2021/06/09 07:53:39;;;;;;;38.53;22.20;;;20.40;89.30;;;;;;5038525;28;20471;-74
2021/06/09 07:56:06;;;;;;;41.90;23.53;;;20.50;89.60;;;;;;5041165;28;20460;-74
2021/06/09 07:58:33;;;;;;;38.90;22.43;;;20.40;89.70;;;;;;5037820;28;20672;-75
2021/06/09 08:01:00;;;;;;;41.43;21.53;;;20.50;89.60;;;;;;5034536;28;20420;-76
2021/06/09 08:03:31;;;;;;;44.70;23.17;;;20.80;89.20;;;;;;5034680;28;20585;-76
2021/06/09 08:05:58;;;;;;;50.40;27.67;;;21.00;88.00;;;;;;5026641;28;20423;-75
2021/06/09 08:08:25;;;;;;;40.70;24.53;;;21.10;87.30;;;;;;5035092;28;20427;-76
2021/06/09 08:10:51;;;;;;;42.83;24.20;;;21.00;87.30;;;;;;5032884;28;20525;-76
2021/06/09 08:13:17;;;;;;;46.83;23.67;;;20.90;88.00;;;;;;5033462;28;20511;-76
2021/06/09 08:15:44;;;;;;;44.20;23.87;;;21.10;87.70;;;;;;5032936;28;21036;-75
2021/06/09 08:18:12;;;;;;;45.60;24.40;;;21.10;87.40;;;;;;5034538;28;20423;-75
2021/06/09 08:21:25;;;;;;;47.87;25.90;;;21.20;87.00;;;;;;5034289;28;20453;-75
2021/06/09 08:23:52;;;;;;;40.53;22.80;;;21.20;86.80;;;;;;5026358;28;20511;-76
2021/06/09 08:26:21;;;;;;;44.70;24.03;;;21.20;87.00;;;;;;5034762;28;20416;-75
2021/06/09 08:28:47;;;;;;;40.33;23.93;;;21.20;86.90;;;;;;5034485;28;20874;-75
2021/06/09 08:31:17;;;;;;;42.73;25.10;;;21.10;86.90;;;;;;5033853;28;20982;-75
2021/06/09 08:33:44;;;;;;;40.53;23.67;;;21.10;87.40;;;;;;5034334;28;20487;-74
2021/06/09 08:36:11;;;;;;;39.53;23.60;;;21.10;87.10;;;;;;5034367;28;20464;-75
2021/06/09 08:38:37;;;;;;;41.60;21.57;;;21.10;87.30;;;;;;5034491;28;20429;-75
2021/06/09 08:41:04;;;;;;;39.00;22.13;;;21.10;87.30;;;;;;5033924;28;20927;-76
2021/06/09 08:43:33;;;;;;;38.73;22.40;;;21.40;87.10;;;;;;5033867;28;20443;-76
2021/06/09 08:46:00;;;;;;;37.37;22.13;;;21.60;86.50;;;;;;5034219;28;20460;-75
2021/06/09 08:48:26;;;;;;;41.77;23.30;;;21.60;85.90;;;;;;5032624;28;20476;-75
2021/06/09 08:50:54;;;;;;;39.77;23.60;;;21.40;86.30;;;;;;5032187;28;20429;-74
2021/06/09 08:53:22;;;;;;;40.90;25.60;;;21.60;86.20;;;;;;5033546;28;20448;-75
2021/06/09 08:55:48;;;;;;;43.00;24.60;;;21.80;85.30;;;;;;5034116;28;20558;-76
2021/06/09 08:58:15;;;;;;;46.63;25.03;;;21.40;86.50;;;;;;5026949;28;20454;-74
2021/06/09 09:00:42;;;;;;;40.17;24.57;;;21.40;87.00;;;;;;5034421;28;20842;-76
2021/06/09 09:03:08;;;;;;;40.73;25.50;;;21.40;87.30;;;;;;5034621;28;20439;-76
2021/06/09 09:05:34;;;;;;;44.60;25.27;;;21.50;86.50;;;;;;5034482;28;20417;-74
2021/06/09 09:08:02;;;;;;;45.97;27.10;;;21.50;87.00;;;;;;5035434;28;20429;-75
2021/06/09 09:10:28;;;;;;;45.10;26.30;;;21.40;86.60;;;;;;5035511;28;20435;-76
2021/06/09 09:12:55;;;;;;;38.90;22.60;;;21.40;87.10;;;;;;5035255;28;20507;-75
2021/06/09 09:15:21;;;;;;;40.27;24.07;;;21.40;87.00;;;;;;5035974;28;20464;-75
2021/06/09 09:17:57;;;;;;;45.10;27.00;;;21.50;86.60;;;;;;5028342;28;20777;-76
2021/06/09 09:20:28;;;;;;;41.67;23.10;;;21.70;86.00;;;;;;5038720;28;20448;-75
2021/06/09 09:22:58;;;;;;;37.70;23.63;;;21.90;85.00;;;;;;5032157;28;20472;-75
2021/06/09 09:25:30;;;;;;;37.13;23.67;;;22.10;84.70;;;;;;5032663;28;21148;-75
2021/06/09 09:28:03;;;;;;;35.60;22.07;;;22.30;84.30;;;;;;5032695;28;20418;-75
2021/06/09 09:30:31;;;;;;;39.20;26.37;;;22.40;84.30;;;;;;5035539;28;20457;-76
2021/06/09 09:33:16;;;;;;;44.53;26.03;;;22.40;83.00;;;;;;5047856;28;20468;-74
2021/06/09 09:35:46;;;;;;;34.50;21.70;;;22.30;83.00;;;;;;5045580;28;20469;-74
2021/06/09 09:38:31;;;;;;;33.93;22.40;;;22.50;82.80;;;;;;5025168;28;20492;-75
2021/06/09 09:41:13;;;;;;;35.77;22.80;;;22.70;81.90;;;;;;5022756;28;21066;-75
2021/06/09 09:43:48;;;;;;;39.67;24.00;;;22.60;81.50;;;;;;5035841;28;20967;-74
2021/06/09 09:46:21;;;;;;;36.87;22.27;;;22.50;81.80;;;;;;5028752;28;20413;-76
2021/06/09 09:49:08;;;;;;;41.73;25.80;;;22.40;81.80;;;;;;5033176;28;20417;-75
2021/06/09 09:51:51;;;;;;;40.23;24.10;;;22.40;81.70;;;;;;5032011;28;20482;-75
2021/06/09 09:54:37;;;;;;;35.97;22.90;;;22.40;81.80;;;;;;5032941;28;20450;-77
2021/06/09 09:57:11;;;;;;;34.57;20.30;;;22.50;81.70;;;;;;5026485;28;20568;-75
2021/06/09 09:59:37;;;;;;;33.30;21.20;;;22.70;80.50;;;;;;5034292;28;20419;-76
2021/06/09 10:02:12;;;;;;;33.27;21.00;;;23.00;79.30;;;;;;5033595;28;20410;-74
2021/06/09 10:04:38;;;;;;;31.03;20.30;;;23.10;77.80;;;;;;5034254;28;20929;-75
2021/06/09 10:07:09;;;;;;;34.97;23.37;;;23.30;76.20;;;;;;5033529;28;20473;-74
2021/06/09 10:09:37;;;;;;;38.80;22.13;;;23.30;77.60;;;;;;5033058;28;20557;-75
2021/06/09 10:12:07;;;;;;;33.43;21.40;;;23.40;75.90;;;;;;5032301;28;20472;-75
2021/06/09 10:14:47;;;;;;;37.30;24.40;;;23.80;75.50;;;;;;5031830;28;20996;-75
2021/06/09 10:17:12;;;;;;;39.10;24.43;;;24.10;74.30;;;;;;5030324;28;20927;-74
2021/06/09 10:19:39;;;;;;;34.40;22.27;;;24.20;74.00;;;;;;5031584;28;20428;-75
2021/06/09 10:22:09;;;;;;;33.80;22.70;;;24.40;73.50;;;;;;5031243;28;20244;-76
2021/06/09 10:24:57;;;;;;;37.43;23.63;;;24.40;74.00;;;;;;5031311;28;20491;-75
2021/06/09 10:27:35;;;;;;;38.03;24.40;;;24.80;73.60;;;;;;5030164;28;20457;-75
2021/06/09 10:30:01;;;;;;;37.07;21.07;;;25.20;70.80;;;;;;5022548;28;20438;-76
2021/06/09 10:32:27;;;;;;;34.50;23.20;;;25.30;71.60;;;;;;5030487;28;20927;-75
2021/06/09 10:34:53;;;;;;;40.00;23.60;;;25.70;70.20;;;;;;5029713;28;20462;-76
2021/06/09 10:37:19;;;;;;;33.57;22.30;;;25.90;68.80;;;;;;5029305;28;20412;-76
2021/06/09 10:39:45;;;;;;;35.23;23.97;;;26.10;68.30;;;;;;5031374;28;20918;-75
2021/06/09 10:42:15;;;;;;;33.60;22.53;;;25.70;69.80;;;;;;5030947;28;20426;-77
2021/06/09 10:44:44;;;;;;;33.40;22.73;;;25.60;70.20;;;;;;5031128;28;20644;-74
2021/06/09 10:47:23;;;;;;;38.77;22.70;;;25.90;69.40;;;;;;5030058;28;20438;-76
2021/06/09 10:49:49;;;;;;;36.30;24.60;;;26.30;67.50;;;;;;5031142;28;20423;-76
2021/06/09 10:52:16;;;;;;;32.87;23.37;;;25.90;67.70;;;;;;5030084;28;20429;-74
2021/06/09 10:54:41;;;;;;;31.50;21.47;;;25.70;67.60;;;;;;5029817;28;20431;-76
2021/06/09 10:57:09;;;;;;;29.47;21.40;;;25.70;67.20;;;;;;5032351;28;20728;-78
2021/06/09 10:59:35;;;;;;;30.60;19.93;;;26.10;64.20;;;;;;5035936;28;20185;-75
2021/06/09 11:02:09;;;;;;;31.67;21.87;;;25.80;65.30;;;;;;5033278;28;20533;-76
2021/06/09 11:04:40;;;;;;;28.63;20.30;;;25.60;66.90;;;;;;5030844;28;20512;-75
2021/06/09 11:07:29;;;;;;;30.13;19.20;;;25.90;65.10;;;;;;5029171;28;20587;-75
2021/06/09 11:10:00;;;;;;;26.80;19.97;;;25.40;66.10;;;;;;5029264;28;20417;-75
2021/06/09 11:12:27;;;;;;;28.27;19.33;;;25.30;66.70;;;;;;5028967;28;20905;-75
2021/06/09 11:15:00;;;;;;;24.50;18.67;;;25.60;65.80;;;;;;5030231;28;20805;-76
2021/06/09 11:17:54;;;;;;;24.63;19.10;;;25.40;66.70;;;;;;5029361;28;20424;-75
2021/06/09 11:20:30;;;;;;;25.47;18.53;;;25.40;65.40;;;;;;5028376;28;20427;-75
2021/06/09 11:23:00;;;;;;;27.13;19.30;;;25.50;63.70;;;;;;5032607;28;20466;-74
2021/06/09 11:25:40;;;;;;;22.67;16.27;;;25.20;63.70;;;;;;5034213;28;20448;-76
2021/06/09 11:28:09;;;;;;;21.20;15.27;;;25.60;61.70;;;;;;5037836;28;20509;-77
2021/06/09 11:30:37;;;;;;;26.47;18.33;;;26.30;60.10;;;;;;5033615;28;20418;-75
2021/06/09 11:33:05;;;;;;;20.60;14.53;;;26.70;60.40;;;;;;5035910;28;20442;-77
2021/06/09 11:35:48;;;;;;;24.10;17.20;;;26.70;57.30;;;;;;5037727;28;20466;-76
2021/06/09 11:38:13;;;;;;;19.60;14.37;;;26.40;57.80;;;;;;5030849;28;20422;-74
2021/06/09 11:40:57;;;;;;;22.67;12.90;;;26.60;56.40;;;;;;5030878;28;20425;-74
2021/06/09 11:43:27;;;;;;;25.17;16.27;;;27.20;56.60;;;;;;5023902;28;20222;-75
2021/06/09 11:45:59;;;;;;;21.53;14.80;;;27.10;55.20;;;;;;5028664;28;20423;-77
2021/06/09 11:48:26;;;;;;;19.20;14.07;;;27.10;56.20;;;;;;5028662;28;20435;-77
2021/06/09 11:51:17;;;;;;;17.23;13.43;;;27.80;53.60;;;;;;5029403;28;20431;-77
2021/06/09 11:53:46;;;;;;;22.00;15.83;;;27.30;54.80;;;;;;5028723;28;20536;-76
2021/06/09 11:56:50;;;;;;;23.50;14.83;;;26.80;56.90;;;;;;5028626;28;20465;-77
2021/06/09 11:59:26;;;;;;;18.57;13.53;;;26.20;55.80;;;;;;5024442;28;20416;-77
2021/06/09 12:01:53;;;;;;;18.27;14.10;;;26.10;57.70;;;;;;5029551;28;20437;-75
2021/06/09 12:04:23;;;;;;;20.03;14.57;;;26.50;57.70;;;;;;5028156;28;20484;-75
2021/06/09 12:06:52;;;;;;;25.10;16.30;;;26.70;57.80;;;;;;5031022;28;20484;-75
2021/06/09 12:09:20;;;;;;;25.10;18.00;;;26.50;62.00;;;;;;5031889;28;20495;-77
2021/06/09 12:11:48;;;;;;;27.50;18.00;;;25.80;66.10;;;;;;5030354;28;20429;-76
2021/06/09 12:14:42;;;;;;;22.40;16.03;;;25.40;67.30;;;;;;5031757;28;20451;-77
2021/06/09 12:17:11;;;;;;;26.73;17.33;;;25.20;70.50;;;;;;5023790;28;20431;-77
2021/06/09 12:19:41;;;;;;;26.60;18.43;;;25.20;71.30;;;;;;5033775;28;20426;-75
2021/06/09 12:22:13;;;;;;;25.20;17.47;;;25.40;69.40;;;;;;5032360;28;20418;-75
2021/06/09 12:24:39;;;;;;;28.70;18.67;;;25.70;68.80;;;;;;5030649;28;20415;-76
2021/06/09 12:27:11;;;;;;;26.67;19.27;;;25.70;67.50;;;;;;5032624;28;20430;-75
2021/06/09 12:29:42;;;;;;;30.20;20.40;;;25.60;68.80;;;;;;5033291;28;20434;-76
2021/06/09 12:32:17;;;;;;;29.10;20.07;;;25.30;68.90;;;;;;5032404;28;20415;-75
2021/06/09 12:34:51;;;;;;;33.37;19.60;;;24.60;71.30;;;;;;5032761;28;20427;-76
2021/06/09 12:37:17;;;;;;;26.20;17.47;;;24.70;70.50;;;;;;5033788;28;20821;-77
2021/06/09 12:39:43;;;;;;;30.70;19.23;;;25.00;69.70;;;;;;5032500;28;20495;-77
2021/06/09 12:42:14;;;;;;;24.03;17.00;;;25.20;67.50;;;;;;5032523;28;20428;-75
2021/06/09 12:44:48;;;;;;;24.17;17.40;;;25.90;65.30;;;;;;5038466;28;20215;-76